Overview Statistics Trail Chart Weather Telemetry Raw packets
 

This is the latest recevied weather packets stored in our database for station/object KB4MOX. If no packets are shown the sender has not sent any weather packets the latest 10 day(s).

<< 111 112 113 114 >>
Time Temp. Humidity Pressure Rain* Wind** Luminosity Snow
1787773847 33.89° C 48% 1015.2 hPa 0 mm - 717 W/m² -
1787773546 33.89° C 48% 1015.5 hPa 0 mm - 732 W/m² -
1787773243 33.33° C 52% 1015.8 hPa 0 mm - 724 W/m² -
1787772938 33.33° C 50% 1015.7 hPa 0 mm - 476 W/m² -
1787772634 33.33° C 50% 1015.9 hPa 0 mm - 768 W/m² -
1787772332 33.33° C 50% 1015.8 hPa 0 mm - 376 W/m² -
1787772031 33.33° C 50% 1015.7 hPa 0 mm - 734 W/m² -
1787771726 32.78° C 51% 1015.9 hPa 0 mm - 734 W/m² -
1787771425 32.78° C 52% 1016 hPa 0 mm - 749 W/m² -
1787771124 33.33° C 51% 1016 hPa 0 mm - 728 W/m² -
1787770820 33.33° C 51% 1015.9 hPa 0 mm - 757 W/m² -
1787770518 32.78° C 50% 1015.9 hPa 0 mm - 804 W/m² -
1787770217 32.22° C 53% 1016.1 hPa 0 mm - 789 W/m² -
1787769916 32.78° C 52% 1016.2 hPa 0 mm - 800 W/m² -
1787769612 32.78° C 53% 1016.2 hPa 0 mm - 325 W/m² -
1787769309 32.78° C 53% 1016.3 hPa 0 mm - 833 W/m² -
1787769004 32.22° C 54% 1016.1 hPa 0 mm - 840 W/m² -
1787768700 31.67° C 55% 1016.2 hPa 0 mm - 819 W/m² -
1787768396 31.67° C 56% 1016.4 hPa 0 mm - 826 W/m² -
1787768092 31.67° C 56% 1016.3 hPa 0 mm - 852 W/m² -
1787767792 32.78° C 54% 1016.2 hPa 0 mm - 306 W/m² -

* Rain latest hour (hover to see other rain measurements)
** Current wind speed in m/s (hover to see current wind gust speed)